FW2205 Weather Reports


Display with metric or nautical units.
time (UTC)temp
F
wind
direction
speed
MPH
gust
MPH
rain 1hr
in
rain 24hr
in
rain mn
in
humidity
%
barometer
mb
20190216130015 0 190 0.0 1.0 0.00 0.35 0.14
20190216125515 0 197 0.0 1.0 0.00 0.35 0.14
20190216125016 0 0.0 0.0 0.00 0.35 0.14
20190216124515 0 0.0 0.0 0.00 0.35 0.14
20190216124015 0 0.0 0.0 0.03 0.35 0.14
20190216123515 0 0.0 0.0 0.04 0.35 0.14
20190216123015 0 321 0.0 1.0 0.04 0.35 0.14
20190216122515 0 326 0.0 3.0 0.04 0.35 0.14
20190216122015 0 0.0 0.0 0.04 0.35 0.14
20190216121515 0 0.0 0.0 0.04 0.35 0.14
20190216121015 0 322 0.0 3.0 0.04 0.35 0.14
20190216120515 0 305 1.0 6.0 0.04 0.35 0.14
20190216120016 0 293 2.0 9.0 0.04 0.35 0.13
20190216115515 0 322 1.0 5.0 0.04 0.35 0.13
20190216115015 0 300 3.0 12.0 0.05 0.35 0.13
20190216114515 0 315 4.0 8.0 0.05 0.35 0.13
20190216114015 0 321 2.0 6.0 0.02 0.32 0.10
20190216113516 0 259 2.0 8.0 0.01 0.31 0.09
20190216113016 0 243 0.0 5.0 0.03 0.31 0.09
20190216112515 0 254 1.0 4.0 0.03 0.31 0.09
20190216112015 0 220 1.0 7.0 0.04 0.31 0.09
20190216111515 0 251 1.0 7.0 0.04 0.31 0.09
20190216111015 0 247 1.0 9.0 0.06 0.31 0.09
20190216110515 0 211 1.0 6.0 0.06 0.31 0.09
20190216110015 0 224 1.0 5.0 0.06 0.31 0.09
20190216105515 0 230 1.0 3.0 0.06 0.31 0.09
20190216105015 0 244 0.0 3.0 0.05 0.29 0.07
20190216104515 0 239 0.0 6.0 0.05 0.29 0.07
20190216104015 0 260 0.0 5.0 0.05 0.29 0.07
20190216103515 0 235 1.0 9.0 0.04 0.29 0.07
20190216103015 0 275 0.0 5.0 0.03 0.28 0.06
20190216102515 0 265 2.0 9.0 0.03 0.28 0.06
20190216102015 0 229 0.0 4.0 0.01 0.26 0.04
20190216101515 0 354 0.0 0.0 0.01 0.26 0.04
20190216101015 0 247 0.0 4.0 0.00 0.25 0.03
20190216100515 0 227 3.0 13.0 0.00 0.24 0.02
20190216100015 0 249 2.0 8.0 0.00 0.24 0.02
20190216095515 0 267 2.0 7.0 0.00 0.24 0.02
20190216095015 0 245 1.0 7.0 0.00 0.24 0.02
20190216094515 0 262 1.0 4.0 0.00 0.24 0.02
20190216094016 0 254 1.0 4.0 0.00 0.24 0.02
20190216093515 0 250 2.0 5.0 0.00 0.24 0.02
20190216093015 0 228 1.0 8.0 0.00 0.24 0.02
20190216092515 0 236 1.0 5.0 0.00 0.24 0.02
20190216092015 0 257 1.0 7.0 0.00 0.24 0.02
20190216091515 0 244 2.0 7.0 0.00 0.24 0.02
20190216091015 0 268 1.0 5.0 0.01 0.24 0.02
20190216090515 0 252 2.0 11.0 0.01 0.24 0.02
20190216090015 0 255 3.0 8.0 0.01 0.24 0.02
20190216085515 0 250 1.0 5.0 0.01 0.24 0.02
20190216085015 0 244 1.0 7.0 0.01 0.24 0.02
20190216084515 0 255 1.0 5.0 0.01 0.24 0.02
20190216084015 0 234 1.0 6.0 0.01 0.24 0.02
20190216083515 0 247 1.0 7.0 0.01 0.24 0.02
20190216083015 0 242 2.0 6.0 0.01 0.24 0.02
20190216082515 0 244 3.0 8.0 0.01 0.24 0.02
20190216082015 0 271 1.0 5.0 0.01 0.24 0.02
20190216081515 0 222 0.0 2.0 0.01 0.24 0.02
20190216081015 0 242 1.0 7.0 0.00 0.23 0.01
20190216080515 0 247 1.0 4.0 0.00 0.23 0.01
20190216080015 0 254 0.0 4.0 0.00 0.23 0.01
20190216075515 0 246 1.0 7.0 0.00 0.23 0.01
20190216075016 0 253 1.0 6.0 0.00 0.23 0.01
20190216074515 0 243 1.0 9.0 0.00 0.23 0.01
20190216074015 0 218 1.0 9.0 0.00 0.23 0.01
20190216073515 0 247 0.0 4.0 0.00 0.23 0.01
20190216073015 0 247 0.0 4.0 0.00 0.23 0.01
20190216072515 0 251 1.0 5.0 0.00 0.23 0.01
20190216072015 0 241 1.0 8.0 0.00 0.23 0.01
20190216071515 0 251 0.0 3.0 0.00 0.23 0.01
20190216071015 0 242 0.0 5.0 0.00 0.23 0.01
20190216070515 0 238 0.0 5.0 0.00 0.23 0.01
20190216070015 0 312 0.0 2.0 0.00 0.23 0.01
20190216065515 0 0.0 0.0 0.00 0.23 0.01
20190216065015 0 194 0.0 3.0 0.00 0.23 0.01
20190216064515 0 0.0 0.0 0.00 0.23 0.01
20190216064015 0 212 0.0 5.0 0.00 0.23 0.01
20190216063515 0 248 0.0 3.0 0.00 0.23 0.01
20190216063015 0 215 0.0 5.0 0.00 0.23 0.01
20190216062515 0 212 0.0 3.0 0.00 0.23 0.01
20190216062015 0 0.0 0.0 0.00 0.23 0.01
20190216061515 0 246 0.0 2.0 0.00 0.23 0.01
20190216061015 0 204 0.0 6.0 0.00 0.23 0.01
20190216060515 0 171 0.0 4.0 0.00 0.23 0.01
20190216060015 0 202 0.0 2.0 0.01 0.23 0.01
20190216055515 0 201 0.0 1.0 0.01 0.23 0.01
20190216055015 0 203 0.0 0.0 0.01 0.23 0.01
20190216054515 0 215 0.0 1.0 0.01 0.23 0.01
20190216054015 0 303 0.0 6.0 0.01 0.23 0.01
20190216053515 0 0.0 0.0 0.01 0.23 0.01
20190216053015 0 0.0 0.0 0.01 0.23 0.01
20190216052515 0 0.0 0.0 0.01 0.23 0.01
20190216052015 0 0.0 0.0 0.01 0.23 0.01
20190216051516 0 0.0 0.0 0.01 0.23 0.01
20190216051015 0 0.0 0.0 0.01 0.23 0.01
20190216050515 0 212 0.0 3.0 0.01 0.23 0.01
20190216050015 0 0.0 0.0 0.00 0.21 0.00
20190216045515 0 0.0 0.0 0.00 0.21 0.21
20190216045017 0 207 0.0 2.0 0.00 0.21 0.21
20190216044516 0 194 0.0 3.0 0.01 0.21 0.21
20190216044015 0 149 0.0 0.0 0.01 0.21 0.21
20190216043516 0 0.0 0.0 0.01 0.21 0.21
20190216043015 0 181 0.0 1.0 0.01 0.21 0.21
20190216042515 0 0.0 0.0 0.01 0.21 0.21
20190216042015 0 195 0.0 1.0 0.01 0.21 0.21
20190216041515 0 0.0 0.0 0.01 0.21 0.21
20190216041015 0 0.0 0.0 0.01 0.21 0.21
20190216040515 0 0.0 0.0 0.01 0.21 0.21
20190216040015 0 0.0 0.0 0.01 0.21 0.21
20190216035515 0 0.0 0.0 0.02 0.21 0.21
20190216035015 0 0.0 0.0 0.02 0.21 0.21
20190216034515 0 0.0 0.0 0.01 0.20 0.20
20190216034015 0 0.0 0.0 0.01 0.20 0.20
20190216033515 0 0.0 0.0 0.01 0.20 0.20
20190216033015 0 0.0 0.0 0.01 0.20 0.20
20190216032515 0 0.0 0.0 0.03 0.20 0.20
20190216032015 0 0.0 0.0 0.03 0.20 0.20
20190216031515 0 0.0 0.0 0.06 0.20 0.20
20190216031015 0 0.0 0.0 0.10 0.20 0.20
20190216030515 0 0.0 0.0 0.12 0.20 0.20
20190216030015 0 0.0 0.0 0.14 0.20 0.20
20190216025515 0 0.0 0.0 0.12 0.18 0.18
20190216025015 0 0.0 0.0 0.12 0.18 0.18
20190216024515 0 0.0 0.0 0.14 0.18 0.18
20190216024015 0 0.0 0.0 0.14 0.18 0.18
20190216023515 0 0.0 0.0 0.14 0.18 0.18
20190216023015 0 0.0 0.0 0.14 0.18 0.18
20190216022515 0 0.0 0.0 0.12 0.17 0.17
20190216022015 0 0.0 0.0 0.12 0.17 0.17
20190216021515 0 0.0 0.0 0.10 0.14 0.14
20190216021016 0 0.0 0.0 0.06 0.09 0.09
20190216020515 0 0.0 0.0 0.04 0.07 0.07
20190216020015 0 0.0 0.0 0.03 0.06 0.06
20190216015516 0 0.0 0.0 0.04 0.06 0.06
20190216015016 0 0.0 0.0 0.04 0.06 0.06
20190216014516 0 0.0 0.0 0.03 0.04 0.04
20190216014015 0 0.0 0.0 0.03 0.04 0.04
20190216013515 0 0.0 0.0 0.04 0.04 0.04
20190216013015 0 0.0 0.0 0.04 0.04 0.04
20190216012515 0 0.0 0.0 0.04 0.04 0.04
20190216012015 0 0.0 0.0 0.04 0.04 0.04
20190216011515 0 0.0 0.0 0.03 0.03 0.03
20190216011016 0 0.0 0.0 0.03 0.03 0.03
20190216010515 0 0.0 0.0 0.02 0.02 0.02
20190216010015 0 0.0 0.0 0.02 0.02 0.02
20190216005515 0 0.0 0.0 0.01 0.01 0.01
20190216005015 0 0.0 0.0 0.01 0.01 0.01
20190216004515 0 0.0 0.0 0.01 0.01 0.01
20190216004015 0 0.0 0.0 0.01 0.01 0.01
20190216003516 0 0.0 0.0 0.00 0.00 0.00
20190216003015 0 0.0 0.0 0.00 0.00 0.00
20190216002515 0 0.0 0.0 0.00 0.00 0.00
20190216002015 0 0.0 0.0 0.00 0.00 0.00
20190216001515 0 0.0 0.0 0.00 0.00 0.00
20190216001015 0 0.0 0.0 0.00 0.00 0.00
20190216000515 0 0.0 0.0 0.00 0.00 0.00
20190216000015 0 0.0 0.0 0.00 0.00 0.00
20190215235515 0 186 0.0 0.0 0.00 0.00 0.00
20190215235015 0 0.0 0.0 0.00 0.00 0.00
20190215234515 0 0.0 0.0 0.00 0.00 0.00
20190215234021 0 246 0.0 3.0 0.00 0.00 0.00
20190215233515 0 169 0.0 1.0 0.00 0.00 0.00
20190215233015 0 203 0.0 3.0 0.00 0.00 0.00
20190215232515 0 259 0.0 1.0 0.00 0.00 0.00
20190215232015 0 0.0 0.0 0.00 0.00 0.00
20190215231515 0 0.0 0.0 0.00 0.00 0.00
20190215231015 0 237 0.0 3.0 0.00 0.00 0.00
20190215230515 0 200 0.0 1.0 0.00 0.00 0.00
20190215230015 0 221 0.0 3.0 0.00 0.00 0.00
20190215225515 0 0.0 0.0 0.00 0.00 0.00
20190215225015 0 211 0.0 3.0 0.00 0.00 0.00
20190215224515 0 193 0.0 1.0 0.00 0.00 0.00
20190215224015 0 0.0 0.0 0.00 0.00 0.00
20190215223515 0 202 0.0 3.0 0.00 0.00 0.00
20190215223015 0 262 0.0 2.0 0.00 0.00 0.00
20190215222515 0 117 0.0 1.0 0.00 0.00 0.00
20190215222016 0 0.0 0.0 0.00 0.00 0.00
20190215221516 0 0.0 0.0 0.00 0.00 0.00
20190215221015 0 0.0 0.0 0.00 0.00 0.00
20190215220515 0 0.0 0.0 0.00 0.00 0.00
20190215220015 0 0.0 0.0 0.00 0.00 0.00
20190215215516 0 174 0.0 2.0 0.00 0.00 0.00
20190215215015 0 178 0.0 1.0 0.00 0.00 0.00
20190215214515 0 247 1.0 4.0 0.00 0.00 0.00
20190215214015 0 210 0.0 1.0 0.00 0.00 0.00
20190215213515 0 264 1.0 4.0 0.00 0.00 0.00
20190215213015 0 251 0.0 2.0 0.00 0.00 0.00
20190215212515 0 222 1.0 4.0 0.00 0.00 0.00
20190215212015 0 246 0.0 2.0 0.00 0.00 0.00
20190215211515 0 251 1.0 3.0 0.00 0.00 0.00
20190215211015 0 180 0.0 0.0 0.00 0.00 0.00
20190215210515 0 236 0.0 2.0 0.00 0.00 0.00
20190215210015 0 0.0 0.0 0.00 0.00 0.00
20190215205515 0 230 0.0 1.0 0.00 0.00 0.00
20190215205015 0 263 0.0 2.0 0.00 0.00 0.00
20190215204515 0 242 0.0 4.0 0.00 0.00 0.00
20190215204015 0 214 0.0 4.0 0.00 0.00 0.00
20190215203516 0 232 1.0 4.0 0.00 0.00 0.00
20190215203015 0 217 0.0 4.0 0.00 0.00 0.00
20190215202515 0 0.0 0.0 0.00 0.00 0.00
20190215202015 0 269 0.0 1.0 0.00 0.00 0.00
20190215201515 0 202 0.0 2.0 0.00 0.00 0.00
20190215201015 0 178 0.0 4.0 0.00 0.00 0.00
20190215200515 0 255 1.0 3.0 0.00 0.00 0.00
20190215200015 0 243 0.0 2.0 0.00 0.00 0.00
20190215195515 0 213 0.0 1.0 0.00 0.00 0.00
20190215195015 0 178 0.0 2.0 0.00 0.00 0.00
20190215194516 0 0.0 0.0 0.00 0.00 0.00
20190215194015 0 322 0.0 3.0 0.00 0.00 0.00
20190215193515 0 233 0.0 3.0 0.00 0.00 0.00
20190215193015 0 258 0.0 3.0 0.00 0.00 0.00
20190215192515 0 280 0.0 4.0 0.00 0.00 0.00
20190215192016 0 258 1.0 4.0 0.00 0.00 0.00
20190215191515 0 247 2.0 4.0 0.00 0.00 0.00
20190215191015 0 257 1.0 4.0 0.00 0.00 0.00
20190215190515 0 239 2.0 6.0 0.00 0.00 0.00
20190215190015 0 202 1.0 4.0 0.00 0.00 0.00
20190215185515 0 231 0.0 2.0 0.00 0.00 0.00
20190215185015 0 250 0.0 2.0 0.00 0.00 0.00
20190215184516 0 198 2.0 6.0 0.00 0.00 0.00
20190215184015 0 195 0.0 4.0 0.00 0.00 0.00
20190215183515 0 287 1.0 8.0 0.00 0.00 0.00
20190215183015 0 288 1.0 6.0 0.00 0.00 0.00
20190215182515 0 313 0.0 3.0 0.00 0.00 0.00
20190215182015 0 222 1.0 5.0 0.00 0.00 0.00
20190215181516 0 225 1.0 4.0 0.00 0.00 0.00
20190215181015 0 259 1.0 4.0 0.00 0.00 0.00
20190215180515 0 214 1.0 5.0 0.00 0.00 0.00
20190215180015 0 219 1.0 3.0 0.00 0.00 0.00
20190215175515 0 250 1.0 4.0 0.00 0.00 0.00
20190215175015 0 216 0.0 2.0 0.00 0.00 0.00
20190215174515 0 228 1.0 5.0 0.00 0.00 0.00
20190215174015 0 205 1.0 5.0 0.00 0.00 0.00
20190215173515 0 225 2.0 5.0 0.00 0.00 0.00
20190215173015 0 260 1.0 4.0 0.00 0.00 0.00
20190215172515 0 246 2.0 6.0 0.00 0.00 0.00
20190215172015 0 254 1.0 6.0 0.00 0.00 0.00
20190215171515 0 262 2.0 5.0 0.00 0.00 0.00
20190215171015 0 252 1.0 3.0 0.00 0.00 0.00
20190215170515 0 242 2.0 5.0 0.00 0.00 0.00
20190215170015 0 204 1.0 5.0 0.00 0.00 0.00
20190215165515 0 246 1.0 6.0 0.00 0.00 0.00
20190215165016 0 232 1.0 4.0 0.00 0.00 0.00
20190215164516 0 254 1.0 3.0 0.00 0.00 0.00
20190215164015 0 227 0.0 4.0 0.00 0.00 0.00
20190215163516 0 262 2.0 5.0 0.00 0.00 0.00
20190215163017 0 253 2.0 6.0 0.00 0.00 0.00
20190215162515 0 212 1.0 6.0 0.00 0.00 0.00
20190215162015 0 258 1.0 7.0 0.00 0.00 0.00
20190215161515 0 249 0.0 3.0 0.00 0.00 0.00
20190215161015 0 270 1.0 3.0 0.00 0.00 0.00
20190215160515 0 271 3.0 7.0 0.00 0.00 0.00
20190215160015 0 261 2.0 5.0 0.00 0.00 0.00
20190215155516 0 218 1.0 4.0 0.00 0.00 0.00
20190215155015 0 282 1.0 3.0 0.00 0.00 0.00
20190215154515 0 286 0.0 4.0 0.00 0.00 0.00
20190215154015 0 257 1.0 3.0 0.00 0.00 0.00
20190215153515 0 238 0.0 3.0 0.00 0.00 0.00
20190215153015 0 176 0.0 4.0 0.00 0.00 0.00
20190215152515 0 0.0 0.0 0.00 0.00 0.00
20190215152015 0 247 1.0 4.0 0.00 0.00 0.00
20190215151515 0 247 0.0 3.0 0.00 0.00 0.00
20190215151015 0 246 0.0 2.0 0.00 0.00 0.00
20190215150515 0 266 1.0 4.0 0.00 0.00 0.00
20190215150015 0 244 0.0 3.0 0.00 0.00 0.00
20190215145515 0 221 1.0 4.0 0.00 0.00 0.00
20190215145015 0 235 1.0 3.0 0.00 0.00 0.00
20190215144515 0 198 0.0 3.0 0.00 0.00 0.00
20190215144015 0 0.0 0.0 0.00 0.00 0.00
20190215143515 0 229 0.0 3.0 0.00 0.00 0.00
20190215143015 0 221 0.0 4.0 0.00 0.00 0.00
20190215142515 0 210 1.0 6.0 0.00 0.00 0.00
20190215142015 0 245 0.0 2.0 0.00 0.00 0.00
20190215141515 0 241 0.0 3.0 0.00 0.00 0.00
20190215141015 0 201 0.0 1.0 0.00 0.00 0.00
20190215140515 0 0.0 0.0 0.00 0.00 0.00
20190215140015 0 244 0.0 2.0 0.00 0.00 0.00
20190215135515 0 249 0.0 2.0 0.00 0.00 0.00
20190215135015 0 241 0.0 2.0 0.00 0.00 0.00
20190215134515 0 215 0.0 0.0 0.00 0.00 0.00
20190215134015 0 260 0.0 3.0 0.00 0.00 0.00
20190215133515 0 218 0.0 3.0 0.00 0.00 0.00
20190215133015 0 245 0.0 2.0 0.00 0.00 0.00
20190215132515 0 248 1.0 6.0 0.00 0.00 0.00
20190215132016 0 234 1.0 7.0 0.00 0.00 0.00
20190215131515 0 235 0.0 1.0 0.00 0.00 0.00
20190215131015 0 242 0.0 3.0 0.00 0.00 0.00
20190215130515 0 0.0 0.0 0.00 0.00 0.00